createdAt,value
2024-05-09T00:00:50.007Z,2.53
2024-05-09T00:05:43.196Z,2.90
2024-05-09T00:10:37.962Z,2.55
2024-05-09T00:15:31.633Z,3.22
2024-05-09T00:20:28.605Z,3.28
2024-05-09T00:25:28.196Z,2.65
2024-05-09T00:30:27.983Z,3.67
2024-05-09T00:35:25.290Z,3.53
2024-05-09T00:40:26.521Z,3.28
2024-05-09T00:45:22.969Z,2.50
2024-05-09T00:50:19.450Z,1.45
2024-05-09T00:55:16.526Z,4.67
2024-05-09T01:00:18.439Z,3.58
2024-05-09T01:05:18.647Z,1.83
2024-05-09T01:10:17.025Z,2.22
2024-05-09T01:15:12.920Z,2.13
2024-05-09T01:20:06.395Z,2.90
2024-05-09T01:25:02.314Z,3.05
2024-05-09T01:29:54.357Z,2.13
2024-05-09T01:34:46.239Z,2.13
2024-05-09T01:39:38.238Z,2.53
2024-05-09T01:44:30.139Z,2.88
2024-05-09T01:49:22.423Z,1.15
2024-05-09T01:54:14.361Z,2.45
2024-05-09T01:59:07.613Z,1.48
2024-05-09T02:03:59.686Z,1.35
2024-05-09T02:08:51.710Z,2.78
2024-05-09T02:13:43.846Z,1.20
2024-05-09T02:18:36.165Z,1.70
2024-05-09T02:23:28.194Z,1.10
2024-05-09T02:28:21.153Z,1.58
2024-05-09T02:33:14.422Z,3.75
2024-05-09T02:38:06.872Z,2.05
2024-05-09T02:42:58.720Z,6.53
2024-05-09T02:47:50.808Z,1.25
2024-05-09T02:52:42.768Z,1.08
2024-05-09T02:57:34.609Z,1.65
2024-05-09T03:02:27.213Z,7.30
2024-05-09T03:07:20.262Z,1.10
2024-05-09T03:12:12.394Z,1.50
2024-05-09T03:17:04.509Z,1.10
2024-05-09T03:21:56.452Z,2.03
2024-05-09T03:26:48.538Z,1.50
2024-05-09T03:31:40.438Z,1.65
2024-05-09T03:36:32.247Z,1.40
2024-05-09T03:41:24.165Z,2.45
2024-05-09T03:46:16.026Z,1.23
2024-05-09T03:51:08.679Z,1.50
2024-05-09T03:56:00.981Z,1.60
2024-05-09T04:00:52.934Z,1.73
2024-05-09T04:05:45.021Z,2.42
2024-05-09T04:10:37.968Z,1.70
2024-05-09T04:15:29.851Z,1.65
2024-05-09T04:20:32.838Z,1.45
2024-05-09T04:25:31.962Z,1.15
2024-05-09T04:30:34.296Z,1.98
2024-05-09T04:35:30.596Z,1.77
2024-05-09T04:40:30.771Z,1.73
2024-05-09T04:45:25.540Z,3.45
2024-05-09T04:50:25.348Z,1.75
2024-05-09T04:55:25.588Z,4.22
2024-05-09T05:00:25.740Z,2.55
2024-05-09T05:05:24.052Z,3.47
2024-05-09T05:10:21.588Z,4.88
2024-05-09T05:15:20.894Z,8.60
2024-05-09T05:20:15.345Z,7.93
2024-05-09T05:25:12.806Z,12.90
2024-05-09T05:30:07.501Z,11.07
2024-05-09T05:35:01.383Z,9.23
2024-05-09T05:39:53.262Z,9.30
2024-05-09T05:44:46.747Z,8.23
2024-05-09T05:49:38.853Z,9.65
2024-05-09T05:54:30.698Z,9.30
2024-05-09T05:59:24.183Z,5.57
2024-05-09T06:04:17.595Z,11.68
2024-05-09T06:09:09.510Z,11.60
2024-05-09T06:14:01.773Z,7.13
2024-05-09T06:18:53.935Z,9.00
2024-05-09T06:23:49.515Z,5.65
2024-05-09T06:28:41.408Z,8.25
2024-05-09T06:33:33.732Z,8.20
2024-05-09T06:38:26.736Z,9.02
2024-05-09T06:43:19.777Z,6.93
2024-05-09T06:48:12.269Z,7.68
2024-05-09T06:53:04.462Z,7.65
2024-05-09T06:57:56.779Z,6.78
2024-05-09T07:02:48.689Z,7.90
2024-05-09T07:07:40.590Z,7.28
2024-05-09T07:12:32.543Z,7.00
2024-05-09T07:17:24.847Z,6.90
2024-05-09T07:22:16.809Z,6.85
2024-05-09T07:27:08.571Z,5.50
2024-05-09T07:32:00.495Z,7.82
2024-05-09T07:36:52.603Z,8.63
2024-05-09T07:41:44.450Z,6.63
2024-05-09T07:53:08.651Z,6.63
2024-05-09T07:56:43.330Z,8.10
2024-05-09T08:01:35.373Z,3.63
2024-05-09T08:06:27.411Z,8.93
2024-05-09T08:11:22.138Z,4.20
2024-05-09T08:16:14.657Z,5.53
2024-05-09T08:21:06.680Z,6.28
2024-05-09T08:25:58.494Z,4.93
2024-05-09T08:30:50.649Z,5.40
2024-05-09T08:35:42.707Z,5.32
2024-05-09T08:40:37.321Z,4.43
2024-05-09T08:45:32.991Z,5.30
2024-05-09T08:50:32.305Z,5.78
2024-05-09T08:55:30.288Z,5.75
2024-05-09T09:00:33.381Z,5.20
2024-05-09T09:05:31.429Z,6.50
2024-05-09T09:10:29.955Z,5.82
2024-05-09T09:15:27.348Z,4.43
2024-05-09T09:20:26.334Z,5.43
2024-05-09T09:25:25.385Z,4.63
2024-05-09T09:30:30.879Z,4.80
2024-05-09T09:35:28.999Z,4.27
2024-05-09T09:40:31.401Z,4.63
2024-05-09T09:45:26.289Z,4.25
2024-05-09T09:50:24.101Z,4.05
2024-05-09T09:55:25.007Z,4.05
2024-05-09T10:00:24.136Z,3.95
2024-05-09T10:05:19.954Z,3.03
2024-05-09T10:10:16.230Z,5.60
2024-05-09T10:15:09.542Z,4.07
2024-05-09T10:20:14.866Z,3.40
2024-05-09T10:25:13.913Z,6.13
2024-05-09T10:30:11.467Z,7.97
2024-05-09T10:35:07.804Z,4.88
2024-05-09T10:40:01.190Z,4.25
2024-05-09T10:44:53.526Z,2.85
2024-05-09T10:49:45.641Z,3.17
2024-05-09T10:54:38.763Z,2.70
2024-05-09T10:59:34.652Z,3.33
2024-05-09T11:04:28.007Z,3.22
2024-05-09T11:09:20.187Z,5.18
2024-05-09T11:14:14.009Z,3.25
2024-05-09T11:19:13.195Z,2.63
2024-05-09T11:24:08.688Z,3.05
2024-05-09T11:29:02.963Z,2.65
2024-05-09T11:33:55.031Z,3.80
2024-05-09T11:38:47.268Z,3.80
2024-05-09T11:43:39.119Z,3.05
2024-05-09T11:48:31.390Z,3.78
2024-05-09T11:53:23.621Z,3.55
2024-05-09T11:58:17.889Z,5.70
2024-05-09T12:03:10.555Z,3.28
2024-05-09T12:08:02.747Z,2.38
2024-05-09T12:12:54.714Z,3.35
2024-05-09T12:17:49.580Z,10.27
2024-05-09T12:22:42.523Z,17.05
2024-05-09T12:27:36.455Z,17.92
2024-05-09T12:32:28.528Z,14.88
2024-05-09T12:37:20.525Z,15.18
2024-05-09T12:42:19.257Z,11.50
2024-05-09T12:47:17.780Z,11.18
2024-05-09T12:52:09.895Z,10.43
2024-05-09T12:57:02.002Z,11.65
2024-05-09T13:01:54.416Z,12.30
2024-05-09T13:06:47.284Z,9.73
2024-05-09T13:11:39.605Z,11.13
2024-05-09T13:16:31.580Z,9.63
2024-05-09T13:21:23.413Z,10.63
2024-05-09T13:26:15.250Z,8.68
2024-05-09T13:31:07.132Z,9.68
2024-05-09T13:35:59.593Z,9.65
2024-05-09T13:40:51.702Z,9.27
2024-05-09T13:45:43.894Z,7.80
2024-05-09T13:50:36.979Z,7.35
2024-05-09T13:55:29.094Z,7.05
2024-05-09T14:05:16.511Z,7.75
2024-05-09T14:10:19.446Z,3.42
2024-05-09T14:15:15.353Z,4.38
2024-05-09T14:20:11.612Z,4.82
2024-05-09T14:25:03.963Z,5.18
2024-05-09T14:29:55.889Z,3.85
2024-05-09T14:34:48.047Z,4.30
2024-05-09T14:39:40.167Z,7.85
2024-05-09T14:44:32.075Z,4.80
2024-05-09T14:49:23.934Z,6.15
2024-05-09T14:54:16.293Z,3.53
2024-05-09T14:59:09.178Z,3.42
2024-05-09T15:04:01.255Z,7.55
2024-05-09T15:08:56.644Z,14.10
2024-05-09T15:13:48.726Z,7.65
2024-05-09T15:18:43.612Z,6.80
2024-05-09T15:23:36.085Z,6.25
2024-05-09T15:28:28.073Z,2.60
2024-05-09T15:33:19.997Z,6.38
2024-05-09T15:38:14.201Z,2.65
2024-05-09T15:43:06.995Z,4.57
2024-05-09T15:47:59.724Z,4.95
2024-05-09T15:52:51.759Z,5.43
2024-05-09T15:57:46.105Z,4.05
2024-05-09T16:02:38.118Z,5.65
2024-05-09T16:07:30.162Z,7.35
2024-05-09T16:12:21.996Z,5.15
2024-05-09T16:17:14.313Z,6.70
2024-05-09T16:22:06.194Z,7.13
2024-05-09T16:26:58.249Z,4.82
2024-05-09T16:31:50.199Z,6.13
2024-05-09T16:36:43.924Z,3.95
2024-05-09T16:41:36.302Z,4.57
2024-05-09T16:46:28.409Z,4.28
2024-05-09T16:51:20.268Z,5.80
2024-05-09T16:56:13.054Z,5.85
2024-05-09T17:01:05.265Z,6.25
2024-05-09T17:05:57.658Z,2.33
2024-05-09T17:10:50.077Z,7.60
2024-05-09T17:15:42.347Z,2.88
2024-05-09T17:20:36.694Z,3.38
2024-05-09T17:25:29.539Z,3.80
2024-05-09T17:30:29.029Z,3.10
2024-05-09T17:35:26.782Z,5.05
2024-05-09T17:40:27.400Z,6.70
2024-05-09T17:45:24.562Z,3.50
2024-05-09T17:50:23.867Z,3.55
2024-05-09T17:55:19.805Z,2.83
2024-05-09T18:00:14.947Z,6.32
2024-05-09T18:05:10.695Z,5.60
2024-05-09T18:10:03.227Z,3.65
2024-05-09T18:14:55.775Z,4.35
2024-05-09T18:19:47.854Z,5.88
2024-05-09T18:24:39.837Z,4.82
2024-05-09T18:29:31.841Z,5.22
2024-05-09T18:34:23.800Z,2.72
2024-05-09T18:39:16.937Z,2.58
2024-05-09T18:44:09.255Z,4.55
2024-05-09T18:49:01.409Z,3.78
2024-05-09T18:53:55.248Z,2.05
2024-05-09T18:58:47.424Z,3.63
2024-05-09T19:03:39.544Z,3.20
2024-05-09T19:08:31.569Z,5.13
2024-05-09T19:13:25.313Z,3.10
2024-05-09T19:18:17.722Z,2.92
2024-05-09T19:23:11.633Z,2.83
2024-05-09T19:28:05.469Z,1.88
2024-05-09T19:32:58.245Z,5.20
2024-05-09T19:37:51.584Z,3.80
2024-05-09T19:42:43.450Z,3.10
2024-05-09T19:47:35.559Z,4.88
2024-05-09T19:52:27.534Z,4.60
2024-05-09T19:57:19.546Z,6.45
2024-05-09T20:02:11.731Z,5.03
2024-05-09T20:07:04.052Z,6.60
2024-05-09T20:11:55.863Z,5.57
2024-05-09T20:16:47.936Z,5.55
2024-05-09T20:21:43.279Z,4.00
2024-05-09T20:26:35.268Z,4.00
2024-05-09T20:31:27.137Z,3.60
2024-05-09T20:36:18.915Z,4.03
2024-05-09T20:41:10.819Z,4.68
2024-05-09T20:46:03.440Z,4.40
2024-05-09T20:50:55.296Z,7.35
2024-05-09T20:55:47.295Z,3.28
2024-05-09T21:00:42.822Z,2.95
2024-05-09T21:05:37.221Z,1.83
2024-05-09T21:10:32.903Z,4.20
2024-05-09T21:15:25.840Z,3.25
2024-05-09T21:20:23.620Z,3.47
2024-05-09T21:25:20.391Z,3.35
2024-05-09T21:30:18.759Z,2.17
2024-05-09T21:35:19.678Z,3.83
2024-05-09T21:40:16.951Z,1.70
2024-05-09T21:45:15.940Z,2.22
2024-05-09T21:50:08.132Z,3.03
2024-05-09T21:55:00.233Z,3.70
2024-05-09T21:59:52.183Z,1.70
2024-05-09T22:04:44.199Z,4.15
2024-05-09T22:09:36.191Z,1.67
2024-05-09T22:14:28.230Z,2.10
2024-05-09T22:19:20.102Z,1.73
2024-05-09T22:24:12.091Z,2.10
2024-05-09T22:29:05.723Z,2.60
2024-05-09T22:33:57.770Z,1.98
2024-05-09T22:38:49.761Z,3.20
2024-05-09T22:43:41.738Z,3.80
2024-05-09T22:48:33.717Z,2.33
2024-05-09T22:53:26.033Z,3.47
2024-05-09T22:58:18.223Z,2.05
2024-05-09T23:03:10.273Z,2.15
2024-05-09T23:08:02.783Z,1.92
2024-05-09T23:12:55.235Z,24.25
2024-05-09T23:17:47.278Z,16.63
2024-05-09T23:22:39.226Z,5.40
2024-05-09T23:27:31.042Z,3.60
2024-05-09T23:32:23.306Z,1.42
2024-05-09T23:37:15.177Z,2.97
2024-05-09T23:42:07.476Z,5.45
2024-05-09T23:46:59.477Z,3.47
2024-05-09T23:51:51.285Z,1.92
2024-05-09T23:56:43.072Z,2.55
